createdAt,value
2022-12-11T00:00:42.051Z,136.02
2022-12-11T00:01:44.786Z,126.80
2022-12-11T00:02:48.247Z,124.20
2022-12-11T00:03:57.082Z,130.38
2022-12-11T00:05:01.819Z,122.82
2022-12-11T00:06:05.702Z,131.27
2022-12-11T00:07:09.121Z,129.88
2022-12-11T00:08:12.165Z,129.38
2022-12-11T00:09:22.082Z,119.40
2022-12-11T00:10:25.501Z,112.07
2022-12-11T00:11:28.451Z,120.22
2022-12-11T00:12:31.872Z,109.78
2022-12-11T00:13:34.370Z,122.65
2022-12-11T00:14:44.604Z,117.20
2022-12-11T00:15:47.107Z,123.55
2022-12-11T00:16:50.600Z,124.28
2022-12-11T00:17:53.131Z,118.75
2022-12-11T00:18:56.572Z,135.10
2022-12-11T00:20:06.084Z,125.35
2022-12-11T00:21:20.052Z,130.10
2022-12-11T00:22:23.442Z,129.98
2022-12-11T00:23:25.910Z,129.88
2022-12-11T00:24:36.072Z,125.05
2022-12-11T00:25:48.070Z,122.82
2022-12-11T00:26:51.487Z,116.28
2022-12-11T00:27:53.969Z,132.63
2022-12-11T00:28:58.341Z,120.75
2022-12-11T00:30:00.818Z,118.70
2022-12-11T00:31:12.083Z,125.03
2022-12-11T00:32:15.503Z,112.65
2022-12-11T00:33:18.091Z,118.47
2022-12-11T00:34:21.475Z,122.75
2022-12-11T00:35:23.984Z,113.80
2022-12-11T00:36:36.083Z,112.03
2022-12-11T00:37:38.669Z,118.90
2022-12-11T00:38:42.892Z,109.28
2022-12-11T00:39:45.622Z,113.82
2022-12-11T00:40:49.269Z,113.43
2022-12-11T00:41:58.071Z,113.45
2022-12-11T00:43:01.480Z,114.50
2022-12-11T00:44:11.080Z,117.70
2022-12-11T00:45:14.481Z,110.95
2022-12-11T00:46:17.052Z,123.70
2022-12-11T00:47:20.544Z,106.82
2022-12-11T00:48:23.220Z,115.47
2022-12-11T00:49:33.116Z,107.20
2022-12-11T00:50:35.995Z,109.45
2022-12-11T00:52:01.071Z,102.30
2022-12-11T00:53:03.789Z,108.75
2022-12-11T00:54:07.565Z,109.93
2022-12-11T00:55:18.126Z,102.25
2022-12-11T00:56:23.030Z,102.68
2022-12-11T00:57:25.484Z,97.57
2022-12-11T00:58:29.104Z,99.72
2022-12-11T00:59:32.558Z,98.45
2022-12-11T01:00:42.113Z,96.22
2022-12-11T01:01:45.550Z,105.90
2022-12-11T01:02:48.118Z,100.75
2022-12-11T01:03:58.062Z,108.93
2022-12-11T01:05:00.527Z,114.68
2022-12-11T01:06:03.923Z,117.28
2022-12-11T01:07:08.644Z,110.13
2022-12-11T01:08:18.261Z,117.13
2022-12-11T01:09:39.580Z,108.88
2022-12-11T01:10:43.011Z,104.30
2022-12-11T01:11:45.671Z,112.93
2022-12-11T01:12:49.101Z,115.07
2022-12-11T01:13:59.131Z,112.50
2022-12-11T01:15:01.693Z,110.88
2022-12-11T01:16:08.141Z,110.93
2022-12-11T01:17:10.650Z,120.55
2022-12-11T01:18:15.306Z,113.22
2022-12-11T01:19:25.034Z,112.22
2022-12-11T01:20:28.220Z,115.68
2022-12-11T01:21:31.967Z,114.65
2022-12-11T01:22:36.012Z,113.68
2022-12-11T01:23:39.843Z,109.78
2022-12-11T01:24:49.063Z,118.30
2022-12-11T01:25:52.503Z,129.38
2022-12-11T01:26:55.003Z,127.13
2022-12-11T01:27:58.390Z,132.32
2022-12-11T01:29:01.456Z,148.55
2022-12-11T01:30:13.065Z,142.05
2022-12-11T01:31:16.838Z,138.52
2022-12-11T01:32:27.061Z,142.07
2022-12-11T01:33:29.551Z,152.00
2022-12-11T01:34:33.825Z,155.20
2022-12-11T01:35:37.336Z,148.35
2022-12-11T01:36:40.123Z,156.30
2022-12-11T01:37:54.071Z,146.50
2022-12-11T01:38:57.131Z,142.02
2022-12-11T01:40:00.604Z,156.40
2022-12-11T01:41:10.101Z,148.88
2022-12-11T01:42:24.071Z,154.88
2022-12-11T01:43:26.550Z,150.32
2022-12-11T01:44:48.432Z,151.52
2022-12-11T01:45:51.908Z,151.23
2022-12-11T01:47:01.081Z,149.45
2022-12-11T01:48:07.400Z,145.05
2022-12-11T01:49:12.013Z,145.85
2022-12-11T01:50:14.678Z,130.43
2022-12-11T01:51:18.356Z,141.48
2022-12-11T01:52:34.083Z,128.30
2022-12-11T01:53:47.253Z,127.65
2022-12-11T01:54:50.094Z,124.65
2022-12-11T01:55:55.353Z,125.22
2022-12-11T01:57:07.091Z,116.35
2022-12-11T01:58:10.682Z,115.35
2022-12-11T01:59:21.080Z,117.97
2022-12-11T02:00:23.702Z,113.88
2022-12-11T02:01:29.896Z,120.60
2022-12-11T02:02:40.114Z,118.88
2022-12-11T02:03:43.681Z,118.10
2022-12-11T02:04:46.842Z,110.15
2022-12-11T02:05:50.702Z,107.60
2022-12-11T02:06:53.981Z,120.93
2022-12-11T02:08:05.257Z,110.75
2022-12-11T02:09:11.934Z,106.55
2022-12-11T02:10:14.633Z,107.30
2022-12-11T02:11:20.434Z,102.15
2022-12-11T02:12:26.942Z,99.13
2022-12-11T02:13:40.114Z,104.57
2022-12-11T02:14:51.127Z,93.00
2022-12-11T02:15:57.725Z,93.28
2022-12-11T02:17:02.161Z,99.55
2022-12-11T02:18:12.574Z,89.13
2022-12-11T02:19:19.681Z,86.63
2022-12-11T02:20:31.131Z,88.00
2022-12-11T02:21:36.101Z,81.57
2022-12-11T02:23:00.648Z,75.20
2022-12-11T02:24:17.228Z,80.25
2022-12-11T02:25:22.212Z,81.07
2022-12-11T02:26:43.101Z,74.53
2022-12-11T02:27:47.722Z,72.72
2022-12-11T02:29:00.091Z,74.10
2022-12-11T02:30:04.843Z,75.07
2022-12-11T02:31:13.336Z,76.03
2022-12-11T02:32:25.150Z,79.50
2022-12-11T02:33:32.904Z,82.30
2022-12-11T02:34:38.465Z,75.65
2022-12-11T02:35:43.083Z,72.60
2022-12-11T02:36:47.802Z,82.00
2022-12-11T02:38:00.090Z,74.97
2022-12-11T02:39:04.001Z,82.20
2022-12-11T02:40:16.098Z,76.88
2022-12-11T02:41:19.461Z,78.57
2022-12-11T02:42:23.472Z,80.28
2022-12-11T02:43:26.614Z,81.57
2022-12-11T02:44:39.111Z,81.15
2022-12-11T02:45:49.124Z,76.32
2022-12-11T02:46:53.204Z,79.18
2022-12-11T02:47:56.898Z,77.95
2022-12-11T02:49:00.383Z,75.60
2022-12-11T02:50:11.092Z,76.50
2022-12-11T02:51:16.273Z,76.55
2022-12-11T02:52:40.070Z,87.07
2022-12-11T02:53:43.770Z,74.32
2022-12-11T02:54:54.075Z,83.07
2022-12-11T02:56:01.290Z,79.57
2022-12-11T02:57:13.061Z,74.78
2022-12-11T02:58:17.652Z,73.93
2022-12-11T02:59:22.353Z,76.60
2022-12-11T03:00:27.101Z,69.50
2022-12-11T03:01:29.615Z,74.25
2022-12-11T03:02:40.151Z,67.55
2022-12-11T03:03:42.843Z,67.72
2022-12-11T03:04:46.579Z,66.15
2022-12-11T03:05:49.093Z,64.68
2022-12-11T03:06:54.500Z,63.05
2022-12-11T03:08:03.160Z,63.40
2022-12-11T03:09:07.400Z,65.03
2022-12-11T03:10:11.142Z,59.35
2022-12-11T03:11:21.301Z,58.42
2022-12-11T03:12:32.102Z,61.00
2022-12-11T03:13:35.521Z,60.65
2022-12-11T03:14:38.114Z,55.42
2022-12-11T03:15:54.062Z,62.22
2022-12-11T03:17:00.701Z,60.33
2022-12-11T03:18:14.083Z,60.63
2022-12-11T03:19:27.068Z,57.03
2022-12-11T03:20:35.001Z,53.25
2022-12-11T03:21:40.910Z,59.78
2022-12-11T03:22:47.590Z,50.88
2022-12-11T03:23:58.101Z,52.88
2022-12-11T03:25:03.712Z,47.78
2022-12-11T03:26:07.120Z,45.13
2022-12-11T03:27:22.088Z,49.35
2022-12-11T03:28:27.244Z,46.05
2022-12-11T03:29:33.376Z,48.17
2022-12-11T03:30:43.140Z,46.88
2022-12-11T03:31:56.081Z,45.08
2022-12-11T03:32:59.831Z,41.78
2022-12-11T03:34:12.172Z,46.15
2022-12-11T03:35:16.074Z,46.22
2022-12-11T03:36:21.891Z,53.30
2022-12-11T03:37:26.490Z,47.63
2022-12-11T03:38:33.193Z,48.97
2022-12-11T03:39:46.083Z,46.80
2022-12-11T03:40:57.061Z,45.28
2022-12-11T03:42:00.911Z,43.60
2022-12-11T03:43:05.069Z,40.40
2022-12-11T03:44:07.901Z,40.53
2022-12-11T03:45:12.123Z,43.72
2022-12-11T03:46:22.177Z,45.15
2022-12-11T03:47:35.080Z,42.55
2022-12-11T03:48:41.830Z,39.97
2022-12-11T03:49:46.303Z,50.47
2022-12-11T03:50:49.769Z,48.80
2022-12-11T03:51:54.301Z,55.65
2022-12-11T03:53:11.091Z,48.17
2022-12-11T03:54:21.580Z,51.15
2022-12-11T03:55:24.487Z,48.25
2022-12-11T03:56:28.671Z,51.42
2022-12-11T03:57:39.091Z,52.58
2022-12-11T03:58:42.543Z,48.63
2022-12-11T03:59:45.132Z,56.10
2022-12-11T04:00:48.531Z,48.13
2022-12-11T04:01:51.140Z,49.90
2022-12-11T04:03:20.110Z,51.53
2022-12-11T04:04:23.632Z,54.42
2022-12-11T04:05:26.141Z,49.70
2022-12-11T04:06:29.544Z,57.03
2022-12-11T04:07:32.010Z,68.10
2022-12-11T04:08:42.088Z,67.55
2022-12-11T04:09:44.580Z,64.28
2022-12-11T04:10:48.087Z,67.40
2022-12-11T04:11:50.591Z,68.43
2022-12-11T04:12:54.010Z,70.68
2022-12-11T04:14:18.086Z,72.30
2022-12-11T04:15:27.070Z,79.95
2022-12-11T04:16:30.493Z,83.93
2022-12-11T04:17:52.118Z,79.63
2022-12-11T04:19:13.761Z,81.13
2022-12-11T04:20:41.116Z,86.97
2022-12-11T04:22:02.212Z,94.00
2022-12-11T04:23:23.987Z,85.65
2022-12-11T04:24:27.382Z,90.35
2022-12-11T04:25:29.851Z,93.95
2022-12-11T04:26:40.097Z,91.90
2022-12-11T04:27:52.061Z,80.15
2022-12-11T04:28:55.485Z,83.85
2022-12-11T04:29:57.981Z,80.95
2022-12-11T04:31:08.130Z,76.35
2022-12-11T04:32:10.648Z,71.93
2022-12-11T04:33:14.050Z,74.53
2022-12-11T04:34:18.021Z,75.53
2022-12-11T04:35:21.521Z,70.40
2022-12-11T04:36:30.091Z,79.03
2022-12-11T04:37:33.511Z,69.38
2022-12-11T04:38:36.101Z,69.15
2022-12-11T04:39:39.493Z,70.50
2022-12-11T04:40:42.030Z,70.53
2022-12-11T04:41:52.103Z,69.40
2022-12-11T04:42:54.650Z,67.05
2022-12-11T04:43:58.060Z,71.30
2022-12-11T04:45:00.562Z,67.25
2022-12-11T04:46:04.927Z,72.80
2022-12-11T04:47:14.121Z,68.03
2022-12-11T04:48:17.501Z,64.32
2022-12-11T04:49:21.292Z,68.00
2022-12-11T04:50:24.726Z,66.55
2022-12-11T04:51:27.671Z,66.15
2022-12-11T04:52:44.092Z,65.93
2022-12-11T04:53:54.251Z,65.80
2022-12-11T04:54:56.780Z,69.10
2022-12-11T04:56:00.262Z,60.60
2022-12-11T04:57:09.142Z,65.03
2022-12-11T04:58:19.081Z,65.28
2022-12-11T04:59:21.582Z,60.38
2022-12-11T05:00:25.020Z,61.40
2022-12-11T05:01:27.533Z,65.38
2022-12-11T05:02:31.033Z,67.82
2022-12-11T05:03:41.104Z,64.50
2022-12-11T05:04:44.931Z,64.00
2022-12-11T05:05:50.689Z,60.55
2022-12-11T05:06:53.190Z,63.70
2022-12-11T05:08:03.174Z,61.63
2022-12-11T05:09:05.682Z,64.90
2022-12-11T05:10:16.091Z,58.42
2022-12-11T05:11:19.891Z,64.35
2022-12-11T05:12:23.271Z,59.17
2022-12-11T05:13:25.861Z,57.75
2022-12-11T05:14:38.155Z,52.10
2022-12-11T05:15:41.026Z,57.22
2022-12-11T05:16:44.451Z,56.60
2022-12-11T05:17:46.911Z,54.47
2022-12-11T05:18:50.329Z,54.60
2022-12-11T05:20:01.100Z,56.60
2022-12-11T05:21:05.400Z,53.38
2022-12-11T05:22:07.914Z,60.58
2022-12-11T05:23:11.420Z,55.17
2022-12-11T05:24:14.031Z,54.22
2022-12-11T05:25:24.106Z,59.38
2022-12-11T05:26:26.582Z,58.65
2022-12-11T05:27:30.232Z,55.08
2022-12-11T05:28:33.822Z,59.03
2022-12-11T05:29:44.111Z,58.63
2022-12-11T05:30:46.621Z,52.30
2022-12-11T05:31:50.052Z,53.58
2022-12-11T05:32:59.074Z,50.22
2022-12-11T05:34:03.448Z,44.28
2022-12-11T05:35:07.610Z,45.83
2022-12-11T05:36:11.581Z,46.85
2022-12-11T05:37:14.161Z,43.75
2022-12-11T05:38:24.152Z,40.15
2022-12-11T05:39:26.611Z,29.73
2022-12-11T05:40:30.026Z,30.45
2022-12-11T05:41:32.757Z,27.65
2022-12-11T05:42:36.395Z,26.80
2022-12-11T05:43:45.124Z,22.73
2022-12-11T05:44:48.641Z,20.70
2022-12-11T05:45:51.162Z,19.50
2022-12-11T05:46:54.984Z,17.08
2022-12-11T05:47:57.561Z,16.25
2022-12-11T05:49:08.063Z,16.55
2022-12-11T05:50:12.025Z,14.45
2022-12-11T05:51:16.152Z,13.20
2022-12-11T05:52:25.331Z,12.95
2022-12-11T05:53:42.104Z,15.90
2022-12-11T05:54:52.112Z,13.07
2022-12-11T05:56:01.164Z,10.20
2022-12-11T05:57:04.600Z,11.48
2022-12-11T05:58:07.075Z,12.68
2022-12-11T05:59:10.929Z,13.73
2022-12-11T06:00:14.054Z,11.50
2022-12-11T06:01:25.112Z,10.18
2022-12-11T06:02:28.630Z,9.75
2022-12-11T06:03:31.161Z,9.70
2022-12-11T06:04:35.145Z,10.75
2022-12-11T06:05:40.364Z,13.70
2022-12-11T06:06:51.150Z,11.85
2022-12-11T06:07:54.607Z,10.55
2022-12-11T06:08:58.155Z,10.18
2022-12-11T06:10:01.568Z,9.00
2022-12-11T06:11:04.601Z,12.07
2022-12-11T06:12:15.232Z,7.70
2022-12-11T06:13:18.419Z,9.95
2022-12-11T06:14:21.882Z,10.15
2022-12-11T06:15:24.439Z,8.85
2022-12-11T06:16:27.992Z,9.88
2022-12-11T06:17:37.149Z,10.20
2022-12-11T06:18:41.462Z,9.02
2022-12-11T06:19:51.283Z,8.70
2022-12-11T06:20:55.091Z,7.82
2022-12-11T06:21:58.496Z,9.75
2022-12-11T06:23:07.092Z,9.18
2022-12-11T06:24:19.140Z,8.57
2022-12-11T06:25:21.621Z,6.55
2022-12-11T06:26:25.360Z,6.32
2022-12-11T06:27:27.813Z,7.35
2022-12-11T06:28:31.292Z,6.57
2022-12-11T06:29:40.113Z,5.85
2022-12-11T06:30:43.522Z,5.22
2022-12-11T06:31:46.040Z,5.28
2022-12-11T06:32:49.527Z,4.70
2022-12-11T06:33:52.009Z,5.03
2022-12-11T06:35:02.154Z,5.40
2022-12-11T06:36:06.803Z,4.72
2022-12-11T06:37:10.227Z,5.43
2022-12-11T06:38:12.680Z,5.22
2022-12-11T06:39:16.100Z,4.90
2022-12-11T06:40:25.151Z,5.22
2022-12-11T06:41:28.591Z,5.30
2022-12-11T06:42:31.121Z,7.60
2022-12-11T06:43:34.610Z,4.95
2022-12-11T06:44:37.988Z,4.90
2022-12-11T06:45:47.168Z,5.13
2022-12-11T06:46:50.610Z,5.95
2022-12-11T06:47:53.093Z,5.90
2022-12-11T06:48:56.524Z,5.38
2022-12-11T06:49:59.092Z,5.63
2022-12-11T06:51:13.252Z,5.15
2022-12-11T06:52:18.707Z,5.57
2022-12-11T06:53:41.113Z,5.55
2022-12-11T06:54:44.542Z,7.03
2022-12-11T06:55:47.031Z,5.95
2022-12-11T06:56:57.100Z,6.57
2022-12-11T06:58:00.500Z,7.00
2022-12-11T06:59:07.342Z,8.50
2022-12-11T07:00:18.111Z,7.65
2022-12-11T07:01:29.161Z,6.07
2022-12-11T07:02:39.166Z,6.63
2022-12-11T07:03:41.690Z,5.22
2022-12-11T07:04:55.263Z,5.35
2022-12-11T07:06:01.480Z,4.57
2022-12-11T07:07:04.883Z,5.10
2022-12-11T07:08:15.155Z,5.90
2022-12-11T07:09:18.600Z,5.53
2022-12-11T07:10:21.301Z,7.10
2022-12-11T07:11:25.071Z,5.45
2022-12-11T07:12:27.560Z,4.22
2022-12-11T07:13:37.116Z,5.65
2022-12-11T07:14:39.683Z,5.57
2022-12-11T07:15:43.072Z,5.90
2022-12-11T07:16:45.655Z,7.57
2022-12-11T07:17:56.123Z,4.90
2022-12-11T07:18:58.592Z,5.85
2022-12-11T07:20:02.145Z,6.20
2022-12-11T07:21:04.922Z,5.32
2022-12-11T07:22:08.764Z,5.43
2022-12-11T07:23:19.142Z,6.30
2022-12-11T07:24:22.631Z,6.22
2022-12-11T07:25:25.119Z,7.28
2022-12-11T07:26:28.583Z,6.15
2022-12-11T07:27:31.102Z,6.60
2022-12-11T07:28:41.101Z,5.57
2022-12-11T07:29:50.124Z,6.50
2022-12-11T07:30:53.552Z,4.38
2022-12-11T07:32:02.264Z,5.50
2022-12-11T07:33:06.627Z,5.15
2022-12-11T07:34:09.297Z,7.10
2022-12-11T07:35:13.007Z,5.25
2022-12-11T07:36:16.360Z,4.57
2022-12-11T07:37:26.172Z,4.55
2022-12-11T07:38:30.936Z,4.78
2022-12-11T07:39:33.451Z,5.45
2022-12-11T07:40:36.900Z,5.20
2022-12-11T07:41:39.601Z,6.55
2022-12-11T07:42:49.101Z,6.20
2022-12-11T07:43:52.558Z,7.70
2022-12-11T07:44:55.055Z,6.50
2022-12-11T07:46:09.113Z,8.32
2022-12-11T07:47:11.596Z,11.32
2022-12-11T07:48:15.013Z,9.80
2022-12-11T07:49:18.511Z,15.00
2022-12-11T07:50:20.991Z,9.55
2022-12-11T07:51:34.115Z,9.60
2022-12-11T07:52:58.111Z,13.77
2022-12-11T07:54:17.168Z,10.25
2022-12-11T07:55:26.311Z,13.85
2022-12-11T07:56:30.343Z,8.63
2022-12-11T07:57:32.841Z,4.97
2022-12-11T07:58:36.997Z,4.82
2022-12-11T07:59:47.123Z,5.45
2022-12-11T08:00:49.731Z,6.85
2022-12-11T08:01:53.276Z,4.80
2022-12-11T08:02:56.731Z,4.35
2022-12-11T08:03:59.394Z,5.72
2022-12-11T08:05:09.482Z,4.68
2022-12-11T08:06:12.734Z,5.13
2022-12-11T08:07:23.115Z,4.82
2022-12-11T08:08:25.709Z,4.20
2022-12-11T08:09:30.471Z,4.35
2022-12-11T08:10:39.135Z,5.15
2022-12-11T08:11:49.207Z,8.38
2022-12-11T08:12:52.644Z,8.25
2022-12-11T08:13:55.218Z,6.45
2022-12-11T08:14:58.630Z,5.38
2022-12-11T08:16:03.940Z,4.70
2022-12-11T08:17:14.132Z,10.25
2022-12-11T08:18:16.613Z,12.43
2022-12-11T08:19:20.101Z,7.70
2022-12-11T08:20:22.576Z,6.00
2022-12-11T08:21:26.972Z,6.75
2022-12-11T08:22:36.160Z,7.45
2022-12-11T08:23:39.591Z,8.98
2022-12-11T08:24:44.489Z,9.63
2022-12-11T08:25:46.981Z,9.07
2022-12-11T08:26:57.142Z,9.40
2022-12-11T08:28:00.571Z,8.95
2022-12-11T08:29:04.101Z,8.07
2022-12-11T08:30:08.035Z,8.05
2022-12-11T08:31:11.823Z,10.50
2022-12-11T08:32:23.122Z,6.65
2022-12-11T08:33:25.981Z,5.50
2022-12-11T08:34:29.414Z,3.50
2022-12-11T08:35:31.952Z,4.88
2022-12-11T08:36:35.402Z,4.65
2022-12-11T08:37:44.172Z,5.57
2022-12-11T08:38:47.804Z,6.70
2022-12-11T08:39:51.701Z,4.38
2022-12-11T08:40:55.142Z,3.90
2022-12-11T08:41:57.622Z,15.90
2022-12-11T08:43:07.194Z,8.50
2022-12-11T08:44:16.596Z,5.68
2022-12-11T08:45:19.609Z,14.48
2022-12-11T08:46:30.426Z,10.27
2022-12-11T08:47:33.003Z,6.82
2022-12-11T08:48:43.115Z,6.18
2022-12-11T08:49:53.171Z,13.18
2022-12-11T08:50:56.604Z,13.13
2022-12-11T08:51:59.992Z,23.15
2022-12-11T08:53:09.351Z,8.77
2022-12-11T08:54:19.302Z,9.43
2022-12-11T08:55:30.136Z,15.27
2022-12-11T08:56:33.534Z,11.65
2022-12-11T08:57:36.069Z,18.02
2022-12-11T08:58:39.632Z,12.02
2022-12-11T08:59:49.111Z,36.10
2022-12-11T09:00:59.208Z,12.70
2022-12-11T09:02:02.628Z,11.57
2022-12-11T09:03:08.470Z,17.77
2022-12-11T09:04:16.247Z,9.88
2022-12-11T09:05:18.810Z,45.42
2022-12-11T09:06:29.158Z,27.10
2022-12-11T09:07:38.205Z,18.40
2022-12-11T09:08:44.835Z,15.52
2022-12-11T09:09:50.632Z,11.50
2022-12-11T09:10:54.470Z,12.60
2022-12-11T09:12:04.125Z,14.45
2022-12-11T09:13:07.680Z,17.45
2022-12-11T09:14:10.204Z,14.65
2022-12-11T09:15:14.001Z,10.60
2022-12-11T09:16:17.700Z,10.90
2022-12-11T09:17:28.151Z,9.90
2022-12-11T09:18:31.597Z,12.55
2022-12-11T09:19:35.001Z,22.83
2022-12-11T09:20:37.511Z,17.30
2022-12-11T09:21:40.952Z,12.45
2022-12-11T09:22:50.121Z,12.50
2022-12-11T09:23:54.880Z,11.65
2022-12-11T09:24:58.326Z,22.98
2022-12-11T09:26:04.272Z,16.58
2022-12-11T09:27:14.141Z,17.67
2022-12-11T09:28:16.669Z,18.08
2022-12-11T09:29:27.165Z,12.50
2022-12-11T09:30:30.716Z,16.98
2022-12-11T09:31:35.891Z,19.45
2022-12-11T09:32:39.919Z,20.73
2022-12-11T09:33:42.453Z,20.15
2022-12-11T09:34:52.801Z,17.30
2022-12-11T09:35:58.845Z,15.88
2022-12-11T09:37:02.362Z,10.65
2022-12-11T09:38:04.919Z,11.15
2022-12-11T09:39:09.320Z,19.77
2022-12-11T09:40:20.276Z,14.10
2022-12-11T09:41:37.141Z,14.90
2022-12-11T09:42:47.789Z,14.27
2022-12-11T09:43:53.184Z,10.85
2022-12-11T09:44:58.143Z,13.30
2022-12-11T09:46:02.126Z,13.60
2022-12-11T09:47:16.134Z,12.77
2022-12-11T09:48:22.452Z,13.15
2022-12-11T09:49:30.366Z,8.88
2022-12-11T09:50:34.726Z,9.27
2022-12-11T09:51:46.195Z,10.82
2022-12-11T09:52:55.620Z,11.10
2022-12-11T09:54:18.137Z,11.45
2022-12-11T09:55:24.206Z,12.88
2022-12-11T09:56:31.653Z,14.88
2022-12-11T09:57:48.163Z,9.13
2022-12-11T09:59:04.261Z,11.93
2022-12-11T10:00:13.293Z,10.18
2022-12-11T10:01:19.895Z,8.27
2022-12-11T10:02:26.920Z,9.20
2022-12-11T10:03:54.136Z,7.40
2022-12-11T10:05:00.882Z,7.18
2022-12-11T10:06:08.288Z,9.02
2022-12-11T10:07:21.141Z,9.25
2022-12-11T10:08:35.191Z,7.55
2022-12-11T10:09:40.921Z,7.70
2022-12-11T10:10:45.597Z,6.82
2022-12-11T10:11:57.450Z,8.77
2022-12-11T10:13:06.978Z,10.93
2022-12-11T10:14:22.182Z,8.20
2022-12-11T10:15:31.830Z,8.77
2022-12-11T10:16:37.365Z,9.63
2022-12-11T10:17:41.733Z,6.30
2022-12-11T10:18:45.263Z,9.85
2022-12-11T10:19:56.239Z,8.55
2022-12-11T10:21:02.715Z,8.07
2022-12-11T10:22:05.391Z,8.55
2022-12-11T10:23:09.762Z,6.78
2022-12-11T10:24:34.677Z,8.90
2022-12-11T10:25:48.110Z,7.30
2022-12-11T10:26:54.901Z,8.85
2022-12-11T10:27:58.676Z,9.15
2022-12-11T10:29:02.614Z,7.80
2022-12-11T10:30:21.124Z,6.32
2022-12-11T10:31:31.574Z,6.10
2022-12-11T10:32:37.432Z,7.55
2022-12-11T10:33:43.952Z,5.95
2022-12-11T10:34:48.693Z,6.60
2022-12-11T10:35:59.133Z,6.80
2022-12-11T10:37:03.205Z,5.50
2022-12-11T10:38:12.798Z,7.65
2022-12-11T10:39:17.302Z,6.45
2022-12-11T10:40:22.495Z,6.97
2022-12-11T10:41:37.211Z,5.78
2022-12-11T10:42:45.513Z,6.63
2022-12-11T10:43:50.071Z,6.65
2022-12-11T10:45:00.782Z,4.95
2022-12-11T10:46:03.964Z,5.53
2022-12-11T10:47:15.154Z,5.68
2022-12-11T10:48:19.053Z,7.90
2022-12-11T10:49:24.066Z,8.65
2022-12-11T10:50:28.013Z,7.53
2022-12-11T10:51:35.999Z,5.88
2022-12-11T10:52:47.207Z,6.45
2022-12-11T10:54:12.117Z,6.85
2022-12-11T10:55:20.774Z,7.13
2022-12-11T10:56:27.141Z,5.60
2022-12-11T10:57:31.500Z,7.75
2022-12-11T10:58:46.181Z,6.07
2022-12-11T10:59:51.120Z,6.15
2022-12-11T11:01:03.544Z,6.93
2022-12-11T11:02:07.908Z,5.78
2022-12-11T11:03:22.051Z,5.82
2022-12-11T11:04:35.103Z,4.68
2022-12-11T11:05:49.363Z,4.90
2022-12-11T11:07:02.966Z,5.47
2022-12-11T11:08:12.019Z,4.10
2022-12-11T11:09:36.135Z,5.38
2022-12-11T11:10:46.135Z,4.40
2022-12-11T11:11:51.730Z,7.13
2022-12-11T11:12:56.442Z,5.57
2022-12-11T11:14:15.168Z,5.45
2022-12-11T11:15:27.213Z,7.32
2022-12-11T11:16:30.173Z,5.45
2022-12-11T11:17:35.424Z,4.43
2022-12-11T11:18:41.479Z,4.43
2022-12-11T11:19:47.944Z,4.60
2022-12-11T11:20:57.173Z,4.13
2022-12-11T11:22:09.172Z,5.43
2022-12-11T11:23:14.320Z,4.93
2022-12-11T11:24:25.313Z,7.10
2022-12-11T11:25:29.748Z,5.35
2022-12-11T11:27:04.230Z,4.68
2022-12-11T11:28:05.255Z,7.30
2022-12-11T11:29:24.790Z,5.82
2022-12-11T11:30:29.194Z,5.05
2022-12-11T11:31:34.722Z,5.20
2022-12-11T11:32:45.152Z,4.88
2022-12-11T11:33:51.322Z,6.72
2022-12-11T11:34:55.756Z,4.22
2022-12-11T11:36:00.442Z,5.68
2022-12-11T11:37:12.166Z,5.20
2022-12-11T11:38:26.141Z,5.72
2022-12-11T11:39:33.103Z,6.20
2022-12-11T11:40:38.233Z,5.50
2022-12-11T11:41:45.308Z,6.45
2022-12-11T11:42:58.174Z,7.13
2022-12-11T11:44:02.723Z,6.65
2022-12-11T11:45:11.589Z,8.10
2022-12-11T11:46:19.706Z,6.43
2022-12-11T11:47:26.357Z,7.00
2022-12-11T11:48:40.181Z,6.25
2022-12-11T11:49:49.103Z,5.95
2022-12-11T11:50:54.134Z,4.75
2022-12-11T11:51:59.392Z,6.82
2022-12-11T11:53:05.874Z,4.22
2022-12-11T11:54:29.204Z,3.70
2022-12-11T11:55:37.543Z,4.53
2022-12-11T11:56:41.872Z,4.25
2022-12-11T11:57:46.374Z,3.75
2022-12-11T11:58:56.193Z,5.30
2022-12-11T12:00:16.150Z,4.70
2022-12-11T12:01:22.582Z,5.15
2022-12-11T12:02:26.056Z,4.90
2022-12-11T12:03:29.781Z,5.75
2022-12-11T12:04:41.168Z,5.88
2022-12-11T12:05:47.601Z,4.72
2022-12-11T12:07:09.522Z,5.25
2022-12-11T12:08:14.021Z,4.65
2022-12-11T12:09:32.254Z,6.80
2022-12-11T12:10:40.422Z,8.70
2022-12-11T12:11:47.503Z,6.28
2022-12-11T12:12:56.753Z,6.20
2022-12-11T12:14:28.781Z,5.13
2022-12-11T12:15:46.215Z,3.85
2022-12-11T12:16:55.991Z,4.95
2022-12-11T12:18:00.246Z,4.88
2022-12-11T12:19:04.904Z,6.30
2022-12-11T12:20:15.181Z,8.05
2022-12-11T12:21:27.175Z,7.07
2022-12-11T12:22:34.811Z,7.03
2022-12-11T12:23:46.683Z,7.82
2022-12-11T12:24:56.050Z,7.82
2022-12-11T12:26:07.150Z,5.47
2022-12-11T12:27:50.919Z,8.50
2022-12-11T12:28:51.985Z,6.35
2022-12-11T12:30:00.845Z,4.35
2022-12-11T12:31:11.855Z,6.85
2022-12-11T12:32:19.990Z,6.53
2022-12-11T12:33:40.269Z,8.45
2022-12-11T12:34:50.270Z,5.85
2022-12-11T12:36:00.876Z,8.60
2022-12-11T12:37:12.696Z,8.55
2022-12-11T12:38:25.352Z,12.05
2022-12-11T12:39:33.471Z,18.25
2022-12-11T12:40:39.955Z,24.25
2022-12-11T12:41:46.861Z,15.13
2022-12-11T12:42:53.006Z,15.00
2022-12-11T12:44:16.290Z,16.92
2022-12-11T12:45:25.959Z,9.88
2022-12-11T12:46:35.365Z,5.45
2022-12-11T12:47:40.818Z,4.63
2022-12-11T12:48:51.141Z,6.72
2022-12-11T12:50:01.163Z,4.05
2022-12-11T12:51:05.490Z,4.35
2022-12-11T12:52:12.507Z,7.18
2022-12-11T12:53:18.125Z,6.50
2022-12-11T12:54:36.163Z,15.18
2022-12-11T12:55:39.830Z,22.80
2022-12-11T12:56:43.872Z,15.10
2022-12-11T12:57:49.116Z,10.13
2022-12-11T12:58:52.580Z,7.35
2022-12-11T13:00:05.766Z,10.02
2022-12-11T13:01:19.223Z,9.40
2022-12-11T13:02:22.763Z,6.72
2022-12-11T13:03:30.673Z,7.82
2022-12-11T13:06:08.160Z,5.22
2022-12-11T13:07:20.433Z,7.75
2022-12-11T13:08:26.658Z,7.25
2022-12-11T13:09:30.221Z,22.40
2022-12-11T13:10:35.011Z,20.73
2022-12-11T13:11:44.212Z,17.67
2022-12-11T13:12:48.515Z,15.35
2022-12-11T13:14:04.020Z,18.67
2022-12-11T13:15:06.760Z,9.90
2022-12-11T13:16:25.493Z,6.35
2022-12-11T13:17:43.170Z,4.22
2022-12-11T13:18:49.530Z,3.35
2022-12-11T13:19:57.565Z,3.35
2022-12-11T13:21:01.039Z,4.38
2022-12-11T13:22:11.160Z,3.72
2022-12-11T13:23:19.453Z,8.77
2022-12-11T13:24:27.555Z,5.55
2022-12-11T13:25:31.924Z,3.55
2022-12-11T13:26:42.212Z,4.10
2022-12-11T13:27:45.652Z,4.35
2022-12-11T13:28:51.741Z,21.05
2022-12-11T13:30:06.330Z,25.35
2022-12-11T13:31:33.858Z,17.10
2022-12-11T13:32:44.162Z,29.92
2022-12-11T13:33:50.222Z,36.63
2022-12-11T13:34:54.414Z,54.92
2022-12-11T13:36:21.343Z,28.52
2022-12-11T13:37:36.175Z,25.55
2022-12-11T13:38:39.761Z,22.27
2022-12-11T13:39:55.215Z,20.42
2022-12-11T13:41:00.121Z,17.15
2022-12-11T13:42:05.081Z,19.75
2022-12-11T13:43:16.165Z,14.18
2022-12-11T13:44:22.771Z,7.85
2022-12-11T13:45:29.080Z,7.20
2022-12-11T13:46:41.163Z,5.43
2022-12-11T13:47:44.820Z,6.28
2022-12-11T13:48:49.381Z,5.38
2022-12-11T13:49:56.332Z,5.95
2022-12-11T13:51:06.180Z,7.75
2022-12-11T13:52:09.921Z,4.10
2022-12-11T13:53:15.680Z,7.22
2022-12-11T13:54:39.131Z,18.15
2022-12-11T13:55:49.202Z,16.02
2022-12-11T13:57:10.190Z,20.23
2022-12-11T13:58:20.575Z,10.50
2022-12-11T13:59:25.351Z,5.80
2022-12-11T14:00:30.246Z,5.25
2022-12-11T14:01:41.192Z,5.45
2022-12-11T14:02:44.628Z,4.40
2022-12-11T14:03:53.271Z,2.95
2022-12-11T14:04:58.962Z,3.38
2022-12-11T14:06:02.512Z,4.38
2022-12-11T14:07:15.164Z,4.30
2022-12-11T14:08:22.165Z,4.22
2022-12-11T14:09:26.404Z,4.13
2022-12-11T14:10:31.555Z,3.97
2022-12-11T14:11:35.572Z,4.57
2022-12-11T14:12:45.283Z,4.50
2022-12-11T14:13:48.082Z,4.90
2022-12-11T14:14:59.202Z,6.03
2022-12-11T14:16:03.195Z,15.18
2022-12-11T14:17:06.842Z,10.63
2022-12-11T14:18:10.240Z,4.82
2022-12-11T14:19:25.172Z,3.63
2022-12-11T14:20:36.153Z,3.35
2022-12-11T14:21:39.579Z,4.45
2022-12-11T14:22:43.025Z,4.80
2022-12-11T14:23:59.167Z,4.40
2022-12-11T14:25:14.650Z,3.88
2022-12-11T14:26:19.095Z,3.38
2022-12-11T14:27:23.163Z,4.22
2022-12-11T14:28:27.780Z,6.70
2022-12-11T14:29:59.150Z,6.43
2022-12-11T14:31:10.206Z,20.20
2022-12-11T14:32:18.764Z,24.88
2022-12-11T14:33:23.863Z,17.85
2022-12-11T14:34:31.605Z,5.63
2022-12-11T14:35:39.146Z,9.00